Banquereau: Past 24 Hour Conditions

 

Northeast Burgeo Bank - 44255

10:00 PM ADT 16 September 2014Buoy position: 47.27N 57.37W
This table is a summary of hourly weather conditions for the past 24 hours.
Date / Time
(ADT)
Wind(knots) Wave height(m) Wave period(s) Pressure(kPa) Air tempC) Water tempC)
16 September 2014
22:00 W 6 gust 8 0.9 7.0 101.4 15 15
21:00 W 8 gust 10 1.0 13.0 101.5 15 15
20:00 W 12 gust 14 1.0 7.0 101.5 14 15
19:00 W 12 gust 16 1.0 7.0 101.4 14 16
18:00 W 14 gust 16 0.9 12.0 101.4 14 16
17:00 WSW 14 gust 18 1.1 N/A 101.4 15 16
16:00 WSW 16 gust 18 1.1 7.0 101.4 14 16
15:00 WSW 14 gust 16 1.0 N/A 101.4 14 16
14:00 W 14 gust 16 1.0 N/A 101.4 14 16
13:00 W 12 gust 16 1.0 5.0 101.5 14 15
12:00 W 14 gust 16 1.0 7.0 101.5 14 15
11:00 WNW 14 gust 16 1.0 6.0 101.5 13 15
10:00 WNW 16 gust 18 1.1 6.0 101.5 14 15
9:00 WNW 16 gust 18 1.1 N/A 101.5 13 15
8:00 WNW 14 gust 18 1.1 5.0 101.5 13 15
7:00 NW 14 gust 18 1.2 N/A 101.4 13 15
6:00 WNW 16 gust 21 1.3 5.0 101.4 14 15
5:00 W 16 gust 19 1.2 4.0 101.4 14 15
4:00 W 16 gust 19 1.2 5.0 101.3 14 15
3:00 WNW 18 gust 19 1.3 5.0 101.4 14 16
2:00 WNW 18 gust 21 1.2 4.0 101.3 14 16
1:00 W 19 gust 23 1.0 6.0 101.4 14 16
0:00 W 14 gust 16 1.0 8.0 101.4 15 16
15 September 2014
23:00 W 14 gust 18 1.0 7.0 101.4 15 16
22:00 WSW 12 gust 14 1.1 8.0 101.5 15 16
 
Map of Atlantic - Newfoundland marine weather areas Southwestern Grand Banks - 44138 Banquereau - 44139 Tail of the Bank - 44140 Nickerson Bank - 44251 Northeast Burgeo Bank - 44255 Blanc-Sablon Airport Cap Whittle Chevery Natashquan Airport Heath Point Miscou Island Grand Étang Ingonish Beach North Mountain St.Paul Island J.A. Douglas McCurdy Sydney Airport Charlottetown Airport East Point North Cape Argentia Bonavista Burgeo Cape Race Corner Brook Daniel's Harbour Englee Ferolle Point La Scie Port aux Basques Rocky Harbour Sagona Island St. Anthony Airport St. John's Int'l Airport St. Lawrence Stephenville Airport Twillingate Winterland Wreckhouse Cartwright Airport Mary's Harbour Grates Cove Pool's Island Marticot Island Long Pond Îles de la Madeleine Airport
Legend: buoyBuoy land stationLand Station